sensor_id;sensor_type;location;lat;lon;timestamp;pressure;altitude;pressure_sealevel;temperature;humidity
86094;BME280;76710;42.684;23.330;2024-03-29T00:02:22;95018.59;;;11.83;46.93
86094;BME280;76710;42.684;23.330;2024-03-29T00:04:48;95017.03;;;11.87;45.20
86094;BME280;76710;42.684;23.330;2024-03-29T00:07:13;95014.97;;;11.84;47.23
86094;BME280;76710;42.684;23.330;2024-03-29T00:09:39;95024.50;;;11.88;46.80
86094;BME280;76710;42.684;23.330;2024-03-29T00:12:04;95026.06;;;11.84;45.57
86094;BME280;76710;42.684;23.330;2024-03-29T00:14:31;95024.50;;;11.88;46.73
86094;BME280;76710;42.684;23.330;2024-03-29T00:16:57;95024.00;;;11.86;44.75
86094;BME280;76710;42.684;23.330;2024-03-29T00:19:22;95028.16;;;11.77;45.24
86094;BME280;76710;42.684;23.330;2024-03-29T00:21:47;95024.56;;;11.78;46.99
86094;BME280;76710;42.684;23.330;2024-03-29T00:24:13;95033.81;;;11.79;46.46
86094;BME280;76710;42.684;23.330;2024-03-29T00:26:38;95021.94;;;11.83;45.76
86094;BME280;76710;42.684;23.330;2024-03-29T00:29:04;95038.72;;;11.86;44.55
86094;BME280;76710;42.684;23.330;2024-03-29T00:31:29;95038.72;;;11.76;44.86
86094;BME280;76710;42.684;23.330;2024-03-29T00:33:55;95039.19;;;11.88;45.16
86094;BME280;76710;42.684;23.330;2024-03-29T00:36:20;95027.06;;;11.88;44.40
86094;BME280;76710;42.684;23.330;2024-03-29T00:38:46;95044.09;;;11.94;43.87
86094;BME280;76710;42.684;23.330;2024-03-29T00:41:11;95041.50;;;11.94;43.76
86094;BME280;76710;42.684;23.330;2024-03-29T00:43:36;95048.19;;;11.95;45.06
86094;BME280;76710;42.684;23.330;2024-03-29T00:46:02;95054.13;;;11.96;44.68
86094;BME280;76710;42.684;23.330;2024-03-29T00:48:27;95049.50;;;11.98;45.08
86094;BME280;76710;42.684;23.330;2024-03-29T00:50:53;95052.56;;;12.00;45.01
86094;BME280;76710;42.684;23.330;2024-03-29T00:53:18;95053.34;;;11.95;44.82
86094;BME280;76710;42.684;23.330;2024-03-29T00:55:44;95053.88;;;11.97;43.66
86094;BME280;76710;42.684;23.330;2024-03-29T00:58:09;95052.84;;;11.93;45.34
86094;BME280;76710;42.684;23.330;2024-03-29T01:00:36;95055.44;;;11.98;44.24
86094;BME280;76710;42.684;23.330;2024-03-29T01:03:01;95059.81;;;11.93;45.89
86094;BME280;76710;42.684;23.330;2024-03-29T01:05:26;95056.75;;;11.91;44.03
86094;BME280;76710;42.684;23.330;2024-03-29T01:07:52;95058.31;;;11.82;45.54
86094;BME280;76710;42.684;23.330;2024-03-29T01:10:17;95055.50;;;11.73;45.07
86094;BME280;76710;42.684;23.330;2024-03-29T01:12:43;95063.75;;;11.75;44.49
86094;BME280;76710;42.684;23.330;2024-03-29T01:15:08;95050.09;;;11.70;46.30
86094;BME280;76710;42.684;23.330;2024-03-29T01:17:34;95064.78;;;11.69;46.12
86094;BME280;76710;42.684;23.330;2024-03-29T01:19:59;95066.09;;;11.72;45.44
86094;BME280;76710;42.684;23.330;2024-03-29T01:22:26;95064.25;;;11.67;45.90
86094;BME280;76710;42.684;23.330;2024-03-29T01:24:51;95068.16;;;11.65;46.79
86094;BME280;76710;42.684;23.330;2024-03-29T01:27:17;95068.16;;;11.65;46.83
86094;BME280;76710;42.684;23.330;2024-03-29T01:29:42;95071.00;;;11.58;47.45
86094;BME280;76710;42.684;23.330;2024-03-29T01:32:08;95065.56;;;11.59;47.00
86094;BME280;76710;42.684;23.330;2024-03-29T01:34:33;95059.69;;;11.54;47.51
86094;BME280;76710;42.684;23.330;2024-03-29T01:36:59;95068.16;;;11.54;46.64
86094;BME280;76710;42.684;23.330;2024-03-29T01:39:24;95069.75;;;11.40;47.28
86094;BME280;76710;42.684;23.330;2024-03-29T01:41:54;95077.50;;;11.30;46.89
86094;BME280;76710;42.684;23.330;2024-03-29T01:44:20;95081.13;;;11.29;47.97
86094;BME280;76710;42.684;23.330;2024-03-29T01:46:45;95088.09;;;10.98;48.06
86094;BME280;76710;42.684;23.330;2024-03-29T01:49:13;95093.00;;;11.05;47.70
86094;BME280;76710;42.684;23.330;2024-03-29T01:51:39;95102.28;;;11.01;48.88
86094;BME280;76710;42.684;23.330;2024-03-29T01:54:06;95100.72;;;10.95;48.34
86094;BME280;76710;42.684;23.330;2024-03-29T01:56:34;95105.84;;;10.90;50.46
86094;BME280;76710;42.684;23.330;2024-03-29T01:59:01;95122.31;;;10.89;49.75
86094;BME280;76710;42.684;23.330;2024-03-29T02:01:29;95112.53;;;10.81;49.51
86094;BME280;76710;42.684;23.330;2024-03-29T02:03:55;95128.53;;;10.88;49.17
86094;BME280;76710;42.684;23.330;2024-03-29T02:06:22;95129.03;;;10.85;50.10
86094;BME280;76710;42.684;23.330;2024-03-29T02:08:49;95135.19;;;10.74;48.98
86094;BME280;76710;42.684;23.330;2024-03-29T02:11:17;95143.44;;;10.76;50.33
86094;BME280;76710;42.684;23.330;2024-03-29T02:13:42;95150.63;;;10.74;49.92
86094;BME280;76710;42.684;23.330;2024-03-29T02:16:09;95149.09;;;10.73;50.49
86094;BME280;76710;42.684;23.330;2024-03-29T02:18:34;95165.34;;;10.83;49.23
86094;BME280;76710;42.684;23.330;2024-03-29T02:21:00;95175.38;;;10.75;49.81
86094;BME280;76710;42.684;23.330;2024-03-29T02:23:30;95184.38;;;10.67;50.06
86094;BME280;76710;42.684;23.330;2024-03-29T02:25:57;95185.38;;;10.66;50.33
86094;BME280;76710;42.684;23.330;2024-03-29T02:28:23;95187.94;;;10.61;50.30
86094;BME280;76710;42.684;23.330;2024-03-29T02:30:49;95190.28;;;10.62;50.06
86094;BME280;76710;42.684;23.330;2024-03-29T02:33:15;95202.09;;;10.58;50.75
86094;BME280;76710;42.684;23.330;2024-03-29T02:35:42;95196.94;;;10.53;50.70
86094;BME280;76710;42.684;23.330;2024-03-29T02:38:07;95209.03;;;10.58;51.22
86094;BME280;76710;42.684;23.330;2024-03-29T02:40:33;95212.38;;;10.53;51.98
86094;BME280;76710;42.684;23.330;2024-03-29T02:42:58;95209.28;;;10.56;51.86
86094;BME280;76710;42.684;23.330;2024-03-29T02:45:24;95209.56;;;10.55;50.71
86094;BME280;76710;42.684;23.330;2024-03-29T02:47:49;95209.78;;;10.43;52.30
86094;BME280;76710;42.684;23.330;2024-03-29T02:50:15;95216.72;;;10.43;52.44
86094;BME280;76710;42.684;23.330;2024-03-29T02:52:41;95214.13;;;10.43;52.63
86094;BME280;76710;42.684;23.330;2024-03-29T02:55:07;95215.94;;;10.42;51.92
86094;BME280;76710;42.684;23.330;2024-03-29T02:57:33;95218.53;;;10.47;51.72
86094;BME280;76710;42.684;23.330;2024-03-29T02:59:58;95212.59;;;10.42;51.30
86094;BME280;76710;42.684;23.330;2024-03-29T03:02:24;95212.81;;;10.40;52.11
86094;BME280;76710;42.684;23.330;2024-03-29T03:04:49;95217.97;;;10.40;51.41
86094;BME280;76710;42.684;23.330;2024-03-29T03:07:15;95227.75;;;10.38;52.87
86094;BME280;76710;42.684;23.330;2024-03-29T03:09:58;95229.00;;;10.36;53.01
86094;BME280;76710;42.684;23.330;2024-03-29T03:12:43;95232.59;;;10.30;53.16
86094;BME280;76710;42.684;23.330;2024-03-29T03:15:08;95226.94;;;10.33;52.57
86094;BME280;76710;42.684;23.330;2024-03-29T03:17:34;95232.34;;;10.26;53.34
86094;BME280;76710;42.684;23.330;2024-03-29T03:19:59;95243.88;;;10.23;53.63
86094;BME280;76710;42.684;23.330;2024-03-29T03:22:25;95248.81;;;10.30;52.35
86094;BME280;76710;42.684;23.330;2024-03-29T03:24:50;95248.78;;;10.25;53.00
86094;BME280;76710;42.684;23.330;2024-03-29T03:27:16;95252.66;;;10.28;52.19
86094;BME280;76710;42.684;23.330;2024-03-29T03:29:41;95254.19;;;10.29;52.77
86094;BME280;76710;42.684;23.330;2024-03-29T03:32:07;95252.69;;;10.33;51.92
86094;BME280;76710;42.684;23.330;2024-03-29T03:34:33;95253.94;;;10.25;52.26
86094;BME280;76710;42.684;23.330;2024-03-29T03:36:59;95261.66;;;10.25;52.09
86094;BME280;76710;42.684;23.330;2024-03-29T03:39:25;95266.78;;;10.25;52.28
86094;BME280;76710;42.684;23.330;2024-03-29T03:41:50;95264.72;;;10.22;52.93
86094;BME280;76710;42.684;23.330;2024-03-29T03:44:16;95280.06;;;10.12;53.18
86094;BME280;76710;42.684;23.330;2024-03-29T03:46:41;95284.50;;;10.16;52.47
86094;BME280;76710;42.684;23.330;2024-03-29T03:49:07;95294.53;;;10.18;53.13
86094;BME280;76710;42.684;23.330;2024-03-29T03:51:32;95291.44;;;10.16;52.50
86094;BME280;76710;42.684;23.330;2024-03-29T03:53:57;95302.69;;;10.10;53.46
86094;BME280;76710;42.684;23.330;2024-03-29T03:56:23;95303.91;;;10.02;53.40
86094;BME280;76710;42.684;23.330;2024-03-29T03:58:48;95301.66;;;10.11;53.31
86094;BME280;76710;42.684;23.330;2024-03-29T04:01:14;95294.47;;;10.13;52.80
86094;BME280;76710;42.684;23.330;2024-03-29T04:03:39;95297.78;;;10.08;53.36
86094;BME280;76710;42.684;23.330;2024-03-29T04:06:05;95291.97;;;10.18;52.79
86094;BME280;76710;42.684;23.330;2024-03-29T04:08:31;95300.16;;;10.15;53.13
86094;BME280;76710;42.684;23.330;2024-03-29T04:10:57;95308.34;;;10.12;52.35
86094;BME280;76710;42.684;23.330;2024-03-29T04:13:22;95317.03;;;10.01;52.68
86094;BME280;76710;42.684;23.330;2024-03-29T04:15:48;95320.09;;;9.98;54.18
86094;BME280;76710;42.684;23.330;2024-03-29T04:18:14;95322.94;;;10.01;54.11
86094;BME280;76710;42.684;23.330;2024-03-29T04:20:39;95328.09;;;10.01;53.00
86094;BME280;76710;42.684;23.330;2024-03-29T04:23:06;95333.25;;;10.01;52.81
86094;BME280;76710;42.684;23.330;2024-03-29T04:25:31;95340.91;;;9.96;54.16
86094;BME280;76710;42.684;23.330;2024-03-29T04:27:58;95340.69;;;9.98;52.75
86094;BME280;76710;42.684;23.330;2024-03-29T04:30:23;95345.28;;;9.96;53.59
86094;BME280;76710;42.684;23.330;2024-03-29T04:32:49;95351.47;;;10.00;52.88
86094;BME280;76710;42.684;23.330;2024-03-29T04:35:14;95360.47;;;9.97;53.47
86094;BME280;76710;42.684;23.330;2024-03-29T04:37:39;95365.78;;;9.91;53.63
86094;BME280;76710;42.684;23.330;2024-03-29T04:40:05;95362.22;;;9.92;54.77
86094;BME280;76710;42.684;23.330;2024-03-29T04:42:31;95368.34;;;9.86;55.32
86094;BME280;76710;42.684;23.330;2024-03-29T04:44:57;95371.94;;;9.85;54.99
86094;BME280;76710;42.684;23.330;2024-03-29T04:47:22;95381.66;;;9.83;55.09
86094;BME280;76710;42.684;23.330;2024-03-29T04:49:48;95376.50;;;9.77;55.07
86094;BME280;76710;42.684;23.330;2024-03-29T04:52:13;95385.47;;;9.75;56.41
86094;BME280;76710;42.684;23.330;2024-03-29T04:54:39;95385.22;;;9.76;55.33
86094;BME280;76710;42.684;23.330;2024-03-29T04:57:05;95402.63;;;9.69;55.68
86094;BME280;76710;42.684;23.330;2024-03-29T04:59:33;95398.13;;;9.55;56.71
86094;BME280;76710;42.684;23.330;2024-03-29T05:01:59;95395.16;;;9.68;56.83
86094;BME280;76710;42.684;23.330;2024-03-29T05:04:25;95400.09;;;9.74;55.81
86094;BME280;76710;42.684;23.330;2024-03-29T05:06:52;95396.63;;;9.86;55.49
86094;BME280;76710;42.684;23.330;2024-03-29T05:09:18;95401.94;;;10.06;55.51
86094;BME280;76710;42.684;23.330;2024-03-29T05:11:44;95401.97;;;10.38;53.79
86094;BME280;76710;42.684;23.330;2024-03-29T05:14:09;95407.09;;;10.75;53.61
86094;BME280;76710;42.684;23.330;2024-03-29T05:16:35;95409.88;;;11.15;51.55
86094;BME280;76710;42.684;23.330;2024-03-29T05:19:01;95411.59;;;11.56;51.16
86094;BME280;76710;42.684;23.330;2024-03-29T05:21:26;95417.66;;;12.02;50.70
86094;BME280;76710;42.684;23.330;2024-03-29T05:23:52;95418.94;;;12.45;49.51
86094;BME280;76710;42.684;23.330;2024-03-29T05:26:18;95428.19;;;12.92;47.88
86094;BME280;76710;42.684;23.330;2024-03-29T05:28:44;95426.56;;;13.31;47.27
86094;BME280;76710;42.684;23.330;2024-03-29T05:31:13;95426.66;;;13.70;44.45
86094;BME280;76710;42.684;23.330;2024-03-29T05:33:42;95432.13;;;14.13;43.45
86094;BME280;76710;42.684;23.330;2024-03-29T05:36:08;95433.47;;;14.44;42.61
86094;BME280;76710;42.684;23.330;2024-03-29T05:38:37;95432.88;;;14.81;41.41
86094;BME280;76710;42.684;23.330;2024-03-29T05:41:03;95441.38;;;15.15;41.19
86094;BME280;76710;42.684;23.330;2024-03-29T05:43:28;95429.72;;;15.60;39.92
86094;BME280;76710;42.684;23.330;2024-03-29T05:45:54;95426.03;;;16.04;39.13
86094;BME280;76710;42.684;23.330;2024-03-29T05:48:19;95426.19;;;16.45;37.24
86094;BME280;76710;42.684;23.330;2024-03-29T05:50:45;95424.75;;;16.71;37.64
86094;BME280;76710;42.684;23.330;2024-03-29T05:53:11;95425.69;;;17.07;36.51
86094;BME280;76710;42.684;23.330;2024-03-29T05:55:37;95429.06;;;17.49;35.77
86094;BME280;76710;42.684;23.330;2024-03-29T05:58:02;95427.63;;;17.70;34.18
86094;BME280;76710;42.684;23.330;2024-03-29T06:00:28;95431.44;;;17.86;33.92
86094;BME280;76710;42.684;23.330;2024-03-29T06:02:54;95436.56;;;18.14;33.24
86094;BME280;76710;42.684;23.330;2024-03-29T06:05:20;95438.69;;;18.47;32.79
86094;BME280;76710;42.684;23.330;2024-03-29T06:07:48;95444.44;;;18.80;32.82
86094;BME280;76710;42.684;23.330;2024-03-29T06:10:14;95450.38;;;19.03;31.48
86094;BME280;76710;42.684;23.330;2024-03-29T06:12:40;95445.09;;;18.94;31.83
86094;BME280;76710;42.684;23.330;2024-03-29T06:15:06;95447.66;;;19.17;32.07
86094;BME280;76710;42.684;23.330;2024-03-29T06:17:50;95447.59;;;19.30;31.77
86094;BME280;76710;42.684;23.330;2024-03-29T06:20:15;95451.09;;;19.65;30.51
86094;BME280;76710;42.684;23.330;2024-03-29T06:22:41;95440.53;;;20.05;30.49
86094;BME280;76710;42.684;23.330;2024-03-29T06:25:07;95440.88;;;20.46;29.61
86094;BME280;76710;42.684;23.330;2024-03-29T06:27:34;95439.31;;;20.62;29.56
86094;BME280;76710;42.684;23.330;2024-03-29T06:30:04;95456.47;;;21.15;28.78
86094;BME280;76710;42.684;23.330;2024-03-29T06:32:31;95447.84;;;21.52;28.11
86094;BME280;76710;42.684;23.330;2024-03-29T06:34:58;95444.25;;;21.86;27.32
86094;BME280;76710;42.684;23.330;2024-03-29T06:37:24;95450.63;;;21.77;27.37
86094;BME280;76710;42.684;23.330;2024-03-29T06:39:51;95449.53;;;22.07;28.20
86094;BME280;76710;42.684;23.330;2024-03-29T06:42:16;95443.06;;;22.04;27.31
86094;BME280;76710;42.684;23.330;2024-03-29T06:44:42;95451.97;;;22.33;27.21
86094;BME280;76710;42.684;23.330;2024-03-29T06:47:08;95452.19;;;21.98;26.69
86094;BME280;76710;42.684;23.330;2024-03-29T06:49:34;95454.94;;;22.43;26.27
86094;BME280;76710;42.684;23.330;2024-03-29T06:51:59;95460.81;;;22.61;25.74
86094;BME280;76710;42.684;23.330;2024-03-29T06:54:27;95457.53;;;22.85;25.71
86094;BME280;76710;42.684;23.330;2024-03-29T06:56:56;95449.56;;;22.60;25.54
86094;BME280;76710;42.684;23.330;2024-03-29T06:59:22;95451.75;;;22.79;25.98
86094;BME280;76710;42.684;23.330;2024-03-29T07:01:49;95451.25;;;23.10;25.37
86094;BME280;76710;42.684;23.330;2024-03-29T07:04:24;95452.06;;;22.90;25.80
86094;BME280;76710;42.684;23.330;2024-03-29T07:06:53;95463.63;;;22.77;25.53
86094;BME280;76710;42.684;23.330;2024-03-29T07:09:20;95461.69;;;22.86;26.55
86094;BME280;76710;42.684;23.330;2024-03-29T07:11:46;95464.41;;;22.56;25.67
86094;BME280;76710;42.684;23.330;2024-03-29T07:14:16;95473.78;;;22.99;26.33
86094;BME280;76710;42.684;23.330;2024-03-29T07:16:46;95472.53;;;23.29;25.90
86094;BME280;76710;42.684;23.330;2024-03-29T07:19:12;95476.06;;;23.58;25.75
86094;BME280;76710;42.684;23.330;2024-03-29T07:21:41;95460.59;;;23.80;25.50
86094;BME280;76710;42.684;23.330;2024-03-29T07:24:06;95463.31;;;23.96;24.19
86094;BME280;76710;42.684;23.330;2024-03-29T07:26:32;95473.72;;;24.17;24.70
86094;BME280;76710;42.684;23.330;2024-03-29T07:28:58;95471.78;;;24.41;23.55
86094;BME280;76710;42.684;23.330;2024-03-29T07:31:23;95458.81;;;24.49;24.25
86094;BME280;76710;42.684;23.330;2024-03-29T07:33:49;95471.13;;;24.72;23.32
86094;BME280;76710;42.684;23.330;2024-03-29T07:36:14;95465.66;;;24.65;23.44
86094;BME280;76710;42.684;23.330;2024-03-29T07:38:42;95473.00;;;24.72;23.26
86094;BME280;76710;42.684;23.330;2024-03-29T07:41:07;95466.56;;;25.13;23.33
86094;BME280;76710;42.684;23.330;2024-03-29T07:43:41;95462.47;;;25.15;22.27
86094;BME280;76710;42.684;23.330;2024-03-29T07:46:16;95460.03;;;25.54;22.22
86094;BME280;76710;42.684;23.330;2024-03-29T07:48:41;95454.16;;;25.13;22.99
86094;BME280;76710;42.684;23.330;2024-03-29T07:51:07;95458.00;;;25.63;23.23
86094;BME280;76710;42.684;23.330;2024-03-29T07:53:32;95457.59;;;26.15;22.62
86094;BME280;76710;42.684;23.330;2024-03-29T07:55:58;95460.44;;;26.06;22.54
86094;BME280;76710;42.684;23.330;2024-03-29T07:58:23;95463.28;;;26.52;21.94
86094;BME280;76710;42.684;23.330;2024-03-29T08:00:51;95464.72;;;26.68;21.58
86094;BME280;76710;42.684;23.330;2024-03-29T08:03:16;95467.88;;;27.16;21.30
86094;BME280;76710;42.684;23.330;2024-03-29T08:05:42;95467.44;;;26.91;20.81
86094;BME280;76710;42.684;23.330;2024-03-29T08:08:07;95458.88;;;27.21;21.01
86094;BME280;76710;42.684;23.330;2024-03-29T08:10:33;95460.28;;;27.37;20.82
86094;BME280;76710;42.684;23.330;2024-03-29T08:12:59;95461.41;;;27.59;20.26
86094;BME280;76710;42.684;23.330;2024-03-29T08:15:26;95452.66;;;27.81;20.07
86094;BME280;76710;42.684;23.330;2024-03-29T08:17:52;95453.59;;;27.66;19.81
86094;BME280;76710;42.684;23.330;2024-03-29T08:20:20;95443.59;;;27.82;19.76
86094;BME280;76710;42.684;23.330;2024-03-29T08:22:48;95433.84;;;28.13;19.93
86094;BME280;76710;42.684;23.330;2024-03-29T08:25:13;95441.38;;;28.40;18.84
86094;BME280;76710;42.684;23.330;2024-03-29T08:27:39;95435.06;;;28.52;18.87
86094;BME280;76710;42.684;23.330;2024-03-29T08:30:05;95424.94;;;27.00;20.35
86094;BME280;76710;42.684;23.330;2024-03-29T08:32:31;95433.50;;;26.93;21.07
86094;BME280;76710;42.684;23.330;2024-03-29T08:34:57;95425.94;;;27.14;20.85
86094;BME280;76710;42.684;23.330;2024-03-29T08:37:23;95426.78;;;27.68;19.98
86094;BME280;76710;42.684;23.330;2024-03-29T08:39:49;95428.91;;;27.58;19.94
86094;BME280;76710;42.684;23.330;2024-03-29T08:42:14;95424.22;;;27.48;19.73
86094;BME280;76710;42.684;23.330;2024-03-29T08:44:42;95420.59;;;27.56;20.09
86094;BME280;76710;42.684;23.330;2024-03-29T08:47:07;95417.78;;;27.72;20.38
86094;BME280;76710;42.684;23.330;2024-03-29T08:49:35;95417.19;;;28.12;18.93
86094;BME280;76710;42.684;23.330;2024-03-29T08:52:00;95415.47;;;28.60;19.35
86094;BME280;76710;42.684;23.330;2024-03-29T08:54:30;95406.59;;;28.75;19.61
86094;BME280;76710;42.684;23.330;2024-03-29T08:56:55;95413.63;;;28.64;18.65
86094;BME280;76710;42.684;23.330;2024-03-29T08:59:21;95409.38;;;28.93;18.10
86094;BME280;76710;42.684;23.330;2024-03-29T09:01:48;95407.91;;;28.95;18.11
86094;BME280;76710;42.684;23.330;2024-03-29T09:04:14;95393.44;;;29.33;18.17
86094;BME280;76710;42.684;23.330;2024-03-29T09:06:41;95401.50;;;29.44;17.61
86094;BME280;76710;42.684;23.330;2024-03-29T09:09:07;95390.44;;;29.97;17.12
86094;BME280;76710;42.684;23.330;2024-03-29T09:11:33;95382.53;;;29.42;16.93
86094;BME280;76710;42.684;23.330;2024-03-29T09:13:59;95383.44;;;29.67;17.00
86094;BME280;76710;42.684;23.330;2024-03-29T09:16:26;95374.41;;;29.21;17.04
86094;BME280;76710;42.684;23.330;2024-03-29T09:18:53;95371.31;;;29.15;17.50
86094;BME280;76710;42.684;23.330;2024-03-29T09:21:19;95376.06;;;29.39;16.89
86094;BME280;76710;42.684;23.330;2024-03-29T09:23:45;95372.66;;;30.01;16.45
86094;BME280;76710;42.684;23.330;2024-03-29T09:26:14;95365.22;;;30.49;15.95
86094;BME280;76710;42.684;23.330;2024-03-29T09:28:40;95367.56;;;30.78;14.96
86094;BME280;76710;42.684;23.330;2024-03-29T09:31:06;95353.19;;;31.01;14.80
86094;BME280;76710;42.684;23.330;2024-03-29T09:33:32;95343.25;;;30.87;14.92
86094;BME280;76710;42.684;23.330;2024-03-29T09:35:58;95347.06;;;30.72;14.46
86094;BME280;76710;42.684;23.330;2024-03-29T09:38:28;95336.03;;;30.70;14.88
86094;BME280;76710;42.684;23.330;2024-03-29T09:41:06;95337.19;;;30.87;14.71
86094;BME280;76710;42.684;23.330;2024-03-29T09:43:35;95335.19;;;30.30;15.56
86094;BME280;76710;42.684;23.330;2024-03-29T09:46:02;95336.03;;;30.59;14.95
86094;BME280;76710;42.684;23.330;2024-03-29T09:48:28;95324.28;;;30.64;14.77
86094;BME280;76710;42.684;23.330;2024-03-29T09:51:05;95330.13;;;29.86;16.05
86094;BME280;76710;42.684;23.330;2024-03-29T09:53:33;95324.44;;;29.92;15.10
86094;BME280;76710;42.684;23.330;2024-03-29T09:56:00;95329.41;;;30.07;15.05
86094;BME280;76710;42.684;23.330;2024-03-29T09:58:26;95333.66;;;30.33;15.23
86094;BME280;76710;42.684;23.330;2024-03-29T10:00:52;95322.34;;;29.53;15.58
86094;BME280;76710;42.684;23.330;2024-03-29T10:03:18;95316.53;;;30.02;15.83
86094;BME280;76710;42.684;23.330;2024-03-29T10:05:46;95314.38;;;30.47;16.49
86094;BME280;76710;42.684;23.330;2024-03-29T10:08:13;95321.22;;;30.62;15.78
86094;BME280;76710;42.684;23.330;2024-03-29T10:10:40;95315.16;;;30.93;15.16
86094;BME280;76710;42.684;23.330;2024-03-29T10:13:06;95312.41;;;30.40;16.25
86094;BME280;76710;42.684;23.330;2024-03-29T10:15:32;95315.16;;;30.68;15.64
86094;BME280;76710;42.684;23.330;2024-03-29T10:18:03;95302.19;;;30.35;15.48
86094;BME280;76710;42.684;23.330;2024-03-29T10:20:28;95307.78;;;29.98;15.59
86094;BME280;76710;42.684;23.330;2024-03-29T10:22:55;95306.91;;;29.76;16.00
86094;BME280;76710;42.684;23.330;2024-03-29T10:25:23;95307.16;;;29.50;16.67
86094;BME280;76710;42.684;23.330;2024-03-29T10:27:49;95309.75;;;30.26;16.13
86094;BME280;76710;42.684;23.330;2024-03-29T10:30:14;95314.22;;;30.01;16.09
86094;BME280;76710;42.684;23.330;2024-03-29T10:32:44;95314.19;;;29.25;16.85
86094;BME280;76710;42.684;23.330;2024-03-29T10:35:10;95303.03;;;29.56;16.53
86094;BME280;76710;42.684;23.330;2024-03-29T10:37:36;95304.38;;;30.05;15.68
86094;BME280;76710;42.684;23.330;2024-03-29T10:40:08;95295.78;;;30.50;15.25
86094;BME280;76710;42.684;23.330;2024-03-29T10:42:37;95295.38;;;30.45;15.95
86094;BME280;76710;42.684;23.330;2024-03-29T10:45:05;95298.47;;;31.00;15.77
86094;BME280;76710;42.684;23.330;2024-03-29T10:47:32;95298.78;;;31.44;14.47
86094;BME280;76710;42.684;23.330;2024-03-29T10:49:58;95293.84;;;31.46;14.74
86094;BME280;76710;42.684;23.330;2024-03-29T10:52:25;95294.19;;;31.55;15.07
86094;BME280;76710;42.684;23.330;2024-03-29T10:54:51;95290.59;;;32.01;14.49
86094;BME280;76710;42.684;23.330;2024-03-29T10:57:23;95292.16;;;31.95;14.82
86094;BME280;76710;42.684;23.330;2024-03-29T11:00:08;95284.88;;;32.09;14.59
86094;BME280;76710;42.684;23.330;2024-03-29T11:05:16;95275.84;;;31.82;14.32
86094;BME280;76710;42.684;23.330;2024-03-29T11:07:43;95278.97;;;31.59;14.91
86094;BME280;76710;42.684;23.330;2024-03-29T11:10:40;95277.94;;;31.04;16.27
86094;BME280;76710;42.684;23.330;2024-03-29T11:16:01;95276.41;;;31.20;16.39
86094;BME280;76710;42.684;23.330;2024-03-29T11:18:27;95271.88;;;31.17;16.30
86094;BME280;76710;42.684;23.330;2024-03-29T11:20:55;95269.59;;;30.84;15.30
86094;BME280;76710;42.684;23.330;2024-03-29T11:23:22;95271.13;;;31.03;16.17
86094;BME280;76710;42.684;23.330;2024-03-29T11:25:50;95274.53;;;30.47;16.08
86094;BME280;76710;42.684;23.330;2024-03-29T11:28:32;95270.34;;;30.92;16.45
86094;BME280;76710;42.684;23.330;2024-03-29T11:31:00;95269.19;;;31.17;16.60
86094;BME280;76710;42.684;23.330;2024-03-29T11:33:27;95273.31;;;31.40;16.44
86094;BME280;76710;42.684;23.330;2024-03-29T11:35:54;95269.59;;;30.88;16.37
86094;BME280;76710;42.684;23.330;2024-03-29T11:38:19;95271.41;;;30.13;16.18
86094;BME280;76710;42.684;23.330;2024-03-29T11:41:17;95264.66;;;29.32;17.88
86094;BME280;76710;42.684;23.330;2024-03-29T11:43:45;95264.47;;;29.08;18.41
86094;BME280;76710;42.684;23.330;2024-03-29T11:46:12;95263.00;;;29.17;18.06
86094;BME280;76710;42.684;23.330;2024-03-29T11:48:38;95268.09;;;29.40;18.24
86094;BME280;76710;42.684;23.330;2024-03-29T11:51:08;95254.59;;;29.73;17.48
86094;BME280;76710;42.684;23.330;2024-03-29T11:53:35;95251.94;;;29.77;18.21
86094;BME280;76710;42.684;23.330;2024-03-29T11:56:02;95248.63;;;30.05;18.34
86094;BME280;76710;42.684;23.330;2024-03-29T11:58:30;95250.94;;;30.20;17.36
86094;BME280;76710;42.684;23.330;2024-03-29T12:00:57;95254.31;;;30.03;17.74
86094;BME280;76710;42.684;23.330;2024-03-29T12:03:27;95245.19;;;29.86;18.03
86094;BME280;76710;42.684;23.330;2024-03-29T12:05:54;95245.97;;;29.91;17.85
86094;BME280;76710;42.684;23.330;2024-03-29T12:08:24;95238.00;;;30.05;17.66
86094;BME280;76710;42.684;23.330;2024-03-29T12:10:49;95238.41;;;30.21;17.97
86094;BME280;76710;42.684;23.330;2024-03-29T12:13:18;95241.84;;;30.39;17.88
86094;BME280;76710;42.684;23.330;2024-03-29T12:15:44;95239.59;;;30.69;16.90
86094;BME280;76710;42.684;23.330;2024-03-29T12:18:10;95238.03;;;30.40;17.19
86094;BME280;76710;42.684;23.330;2024-03-29T12:20:38;95242.25;;;30.76;17.06
86094;BME280;76710;42.684;23.330;2024-03-29T12:23:09;95246.03;;;31.04;16.94
86094;BME280;76710;42.684;23.330;2024-03-29T12:25:36;95252.09;;;30.90;18.09
86094;BME280;76710;42.684;23.330;2024-03-29T12:28:02;95242.22;;;30.94;16.58
86094;BME280;76710;42.684;23.330;2024-03-29T12:30:28;95248.31;;;30.91;17.00
86094;BME280;76710;42.684;23.330;2024-03-29T12:35:27;95230.13;;;30.54;16.64
86094;BME280;76710;42.684;23.330;2024-03-29T12:37:52;95230.13;;;30.54;17.24
86094;BME280;76710;42.684;23.330;2024-03-29T12:40:19;95235.75;;;30.17;17.01
86094;BME280;76710;42.684;23.330;2024-03-29T12:42:51;95229.69;;;30.10;17.43
86094;BME280;76710;42.684;23.330;2024-03-29T12:45:18;95231.59;;;30.41;16.62
86094;BME280;76710;42.684;23.330;2024-03-29T12:47:45;95227.06;;;30.49;16.94
86094;BME280;76710;42.684;23.330;2024-03-29T12:50:23;95230.88;;;30.44;17.05
86094;BME280;76710;42.684;23.330;2024-03-29T12:52:49;95217.22;;;30.60;16.05
86094;BME280;76710;42.684;23.330;2024-03-29T12:55:15;95222.53;;;30.49;16.42
86094;BME280;76710;42.684;23.330;2024-03-29T12:57:43;95218.72;;;30.61;15.84